Time,TemperatureF,DewpointF,PressureIn,WindDirection,WindDirectionDegrees,WindSpeedMPH,WindSpeedGustMPH,Humidity,HourlyPrecipIn,Conditions,Clouds,dailyrainin,SoftwareType,DateUTC
2013-01-29 00:15:00,49.3,47.0,30.01,SW,219,4.0,7.0,92,0.00,,,0.00,weatherlink.com 1.10,2013-01-29 05:15:00,
2013-01-29 00:30:00,49.4,47.0,30.01,SW,222,4.0,10.0,92,0.00,,,0.00,weatherlink.com 1.10,2013-01-29 05:30:00,
2013-01-29 00:45:00,49.5,48.0,30.01,SW,225,4.0,9.0,93,0.00,,,0.00,weatherlink.com 1.10,2013-01-29 05:45:00,
2013-01-29 01:00:00,49.5,47.0,30.01,SW,216,2.0,8.0,92,0.00,,,0.00,weatherlink.com 1.10,2013-01-29 06:00:00,
2013-01-29 01:15:00,49.5,47.0,30.00,South,181,5.0,9.0,92,0.00,,,0.00,weatherlink.com 1.10,2013-01-29 06:15:00,
2013-01-29 01:30:00,49.6,48.0,30.00,WSW,237,4.0,7.0,93,0.00,,,0.00,weatherlink.com 1.10,2013-01-29 06:30:00,
2013-01-29 01:45:00,49.6,48.0,30.00,South,179,4.0,9.0,93,0.00,,,0.00,weatherlink.com 1.10,2013-01-29 06:45:00,
2013-01-29 02:00:00,49.7,48.0,29.99,SW,217,0.0,8.0,93,0.00,,,0.00,weatherlink.com 1.10,2013-01-29 07:00:00,
2013-01-29 02:15:00,49.7,48.0,30.00,SW,231,5.0,7.0,93,0.00,,,0.00,weatherlink.com 1.10,2013-01-29 07:15:00,
2013-01-29 02:30:00,49.8,48.0,29.99,SSW,211,2.0,7.0,93,0.00,,,0.00,weatherlink.com 1.10,2013-01-29 07:30:00,
2013-01-29 02:45:00,49.8,48.0,29.99,SW,216,4.0,7.0,93,0.00,,,0.00,weatherlink.com 1.10,2013-01-29 07:45:00,
2013-01-29 03:00:00,50.1,48.0,29.99,SSW,194,3.0,8.0,93,0.00,,,0.00,weatherlink.com 1.10,2013-01-29 08:00:00,
2013-01-29 03:15:00,50.2,48.0,29.98,SSW,206,7.0,9.0,93,0.00,,,0.00,weatherlink.com 1.10,2013-01-29 08:15:00,
2013-01-29 03:30:00,50.2,48.0,29.98,South,181,5.0,7.0,93,0.00,,,0.00,weatherlink.com 1.10,2013-01-29 08:30:00,
2013-01-29 03:45:00,49.7,48.0,29.97,SSW,201,3.0,6.0,93,0.00,,,0.00,weatherlink.com 1.10,2013-01-29 08:45:00,
2013-01-29 04:00:00,49.6,48.0,29.97,SSW,196,1.0,8.0,93,0.00,,,0.00,weatherlink.com 1.10,2013-01-29 09:00:00,
2013-01-29 04:16:00,49.5,48.0,29.97,SSW,200,4.0,7.0,93,0.00,,,0.00,weatherlink.com 1.10,2013-01-29 09:16:00,
2013-01-29 04:31:00,49.2,47.0,29.96,South,189,2.0,4.0,93,0.00,,,0.00,weatherlink.com 1.10,2013-01-29 09:31:00,
2013-01-29 04:46:00,49.0,47.0,29.96,South,186,2.0,5.0,93,0.00,,,0.00,weatherlink.com 1.10,2013-01-29 09:46:00,
2013-01-29 05:02:00,48.5,47.0,29.96,South,175,2.0,5.0,93,0.00,,,0.00,weatherlink.com 1.10,2013-01-29 10:02:00,
2013-01-29 05:17:00,48.1,46.0,29.95,SSW,194,3.0,6.0,92,0.00,,,0.00,weatherlink.com 1.10,2013-01-29 10:17:00,
2013-01-29 05:31:00,47.9,46.0,29.95,South,181,2.0,4.0,93,0.00,,,0.00,weatherlink.com 1.10,2013-01-29 10:31:00,
2013-01-29 05:47:00,47.6,45.0,29.94,SSW,202,0.0,4.0,92,0.00,,,0.00,weatherlink.com 1.10,2013-01-29 10:47:00,
2013-01-29 06:01:00,47.4,46.0,29.94,South,184,0.0,4.0,93,0.00,,,0.00,weatherlink.com 1.10,2013-01-29 11:01:00,
2013-01-29 06:17:00,47.5,46.0,29.94,SSW,202,0.0,5.0,93,0.00,,,0.00,weatherlink.com 1.10,2013-01-29 11:17:00,
2013-01-29 06:31:00,47.8,46.0,29.95,SSW,212,3.0,5.0,93,0.00,,,0.00,weatherlink.com 1.10,2013-01-29 11:31:00,
2013-01-29 06:46:00,48.0,46.0,29.95,SSW,192,2.0,6.0,93,0.00,,,0.00,weatherlink.com 1.10,2013-01-29 11:46:00,
2013-01-29 07:01:00,48.1,46.0,29.94,South,181,3.0,7.0,93,0.00,,,0.00,weatherlink.com 1.10,2013-01-29 12:01:00,
2013-01-29 07:16:00,48.0,46.0,29.95,South,185,3.0,7.0,93,0.00,,,0.00,weatherlink.com 1.10,2013-01-29 12:16:00,
2013-01-29 07:31:00,47.7,46.0,29.95,South,175,3.0,8.0,93,0.00,,,0.00,weatherlink.com 1.10,2013-01-29 12:31:00,
2013-01-29 07:46:00,47.2,45.0,29.95,South,175,2.0,6.0,93,0.00,,,0.00,weatherlink.com 1.10,2013-01-29 12:46:00,
2013-01-29 08:02:00,47.6,46.0,29.94,SSE,159,3.0,7.0,93,0.00,,,0.00,weatherlink.com 1.10,2013-01-29 13:02:00,
2013-01-29 08:17:00,48.1,46.0,29.94,South,186,2.0,7.0,93,0.00,,,0.00,weatherlink.com 1.10,2013-01-29 13:17:00,
2013-01-29 08:32:00,49.1,47.0,29.94,SSW,206,2.0,8.0,93,0.00,,,0.00,weatherlink.com 1.10,2013-01-29 13:32:00,
2013-01-29 08:48:00,49.8,48.0,29.94,SW,224,0.0,12.0,93,0.00,,,0.00,weatherlink.com 1.10,2013-01-29 13:48:00,
2013-01-29 09:02:00,50.4,49.0,29.93,SW,221,3.0,7.0,93,0.00,,,0.00,weatherlink.com 1.10,2013-01-29 14:02:00,
2013-01-29 09:17:00,51.6,50.0,29.93,SW,222,5.0,14.0,93,0.00,,,0.00,weatherlink.com 1.10,2013-01-29 14:17:00,
2013-01-29 09:32:00,52.7,51.0,29.92,WSW,242,3.0,17.0,93,0.00,,,0.00,weatherlink.com 1.10,2013-01-29 14:32:00,
2013-01-29 09:47:00,53.8,52.0,29.92,SSW,200,9.0,17.0,93,0.00,,,0.00,weatherlink.com 1.10,2013-01-29 14:47:00,
2013-01-29 10:02:00,54.5,52.0,29.91,SW,227,12.0,15.0,90,0.00,,,0.00,weatherlink.com 1.10,2013-01-29 15:02:00,
2013-01-29 10:17:00,55.3,52.0,29.90,SSW,198,8.0,21.0,89,0.00,,,0.00,weatherlink.com 1.10,2013-01-29 15:17:00,
2013-01-29 10:32:00,56.6,53.0,29.91,South,175,9.0,22.0,87,0.00,,,0.00,weatherlink.com 1.10,2013-01-29 15:32:00,
2013-01-29 10:47:00,58.0,54.0,29.91,SW,225,12.0,21.0,85,0.00,,,0.00,weatherlink.com 1.10,2013-01-29 15:47:00,
2013-01-29 11:02:00,58.6,54.0,29.91,SSW,210,9.0,21.0,84,0.00,,,0.00,weatherlink.com 1.10,2013-01-29 16:02:00,
2013-01-29 11:19:00,59.1,54.0,29.90,SW,231,15.0,19.0,83,0.00,,,0.00,weatherlink.com 1.10,2013-01-29 16:19:00,
2013-01-29 11:33:00,59.5,54.0,29.89,SSW,204,9.0,22.0,82,0.00,,,0.00,weatherlink.com 1.10,2013-01-29 16:33:00,
2013-01-29 11:48:00,59.2,54.0,29.89,South,191,11.0,24.0,82,0.00,,,0.00,weatherlink.com 1.10,2013-01-29 16:48:00,
2013-01-29 12:03:00,59.1,54.0,29.88,SSW,204,13.0,20.0,83,0.00,,,0.00,weatherlink.com 1.10,2013-01-29 17:03:00,
2013-01-29 12:19:00,59.7,54.0,29.87,SSW,209,5.0,17.0,82,0.00,,,0.00,weatherlink.com 1.10,2013-01-29 17:19:00,
2013-01-29 12:33:00,59.9,54.0,29.86,SW,235,9.0,17.0,82,0.00,,,0.00,weatherlink.com 1.10,2013-01-29 17:33:00,
2013-01-29 12:49:00,60.8,55.0,29.85,SSW,202,8.0,17.0,81,0.00,,,0.00,weatherlink.com 1.10,2013-01-29 17:49:00,
2013-01-29 13:03:00,61.5,56.0,29.85,SSW,194,6.0,15.0,81,0.00,,,0.00,weatherlink.com 1.10,2013-01-29 18:03:00,
2013-01-29 13:18:00,62.2,55.0,29.84,SSW,193,7.0,18.0,78,0.00,,,0.00,weatherlink.com 1.10,2013-01-29 18:18:00,
2013-01-29 13:33:00,61.7,55.0,29.83,SSW,205,7.0,22.0,78,0.00,,,0.00,weatherlink.com 1.10,2013-01-29 18:33:00,
2013-01-29 13:48:00,61.9,55.0,29.82,SSW,205,8.0,19.0,78,0.00,,,0.00,weatherlink.com 1.10,2013-01-29 18:48:00,
2013-01-29 14:03:00,62.7,55.0,29.82,WSW,240,10.0,17.0,77,0.00,,,0.00,weatherlink.com 1.10,2013-01-29 19:03:00,
2013-01-29 14:18:00,64.2,56.0,29.81,SW,217,8.0,22.0,74,0.00,,,0.00,weatherlink.com 1.10,2013-01-29 19:18:00,
2013-01-29 14:34:00,64.2,55.0,29.81,South,179,6.0,23.0,73,0.00,,,0.00,weatherlink.com 1.10,2013-01-29 19:34:00,
2013-01-29 14:49:00,64.1,55.0,29.80,SSW,200,11.0,18.0,72,0.00,,,0.00,weatherlink.com 1.10,2013-01-29 19:49:00,
2013-01-29 15:04:00,64.0,55.0,29.80,SSW,197,11.0,17.0,73,0.00,,,0.00,weatherlink.com 1.10,2013-01-29 20:04:00,
2013-01-29 15:19:00,65.2,56.0,29.81,SW,216,6.0,16.0,71,0.00,,,0.00,weatherlink.com 1.10,2013-01-29 20:19:00,
2013-01-29 15:34:00,64.1,55.0,29.80,WSW,237,10.0,20.0,73,0.00,,,0.00,weatherlink.com 1.10,2013-01-29 20:34:00,
2013-01-29 15:49:00,64.1,56.0,29.79,SSW,202,7.0,11.0,74,0.00,,,0.00,weatherlink.com 1.10,2013-01-29 20:49:00,
2013-01-29 16:04:00,63.9,55.0,29.78,South,186,3.0,11.0,74,0.00,,,0.00,weatherlink.com 1.10,2013-01-29 21:04:00,
2013-01-29 16:19:00,63.9,55.0,29.78,SW,217,7.0,12.0,74,0.00,,,0.00,weatherlink.com 1.10,2013-01-29 21:19:00,
2013-01-29 16:35:00,64.0,56.0,29.77,SW,220,9.0,17.0,74,0.00,,,0.00,weatherlink.com 1.10,2013-01-29 21:35:00,
2013-01-29 16:49:00,63.9,55.0,29.77,SW,235,6.0,13.0,74,0.00,,,0.00,weatherlink.com 1.10,2013-01-29 21:49:00,
2013-01-29 17:04:00,63.6,55.0,29.77,SSW,194,5.0,11.0,74,0.00,,,0.00,weatherlink.com 1.10,2013-01-29 22:04:00,
2013-01-29 17:19:00,63.3,55.0,29.76,South,190,4.0,9.0,75,0.00,,,0.00,weatherlink.com 1.10,2013-01-29 22:19:00,
2013-01-29 17:34:00,62.8,55.0,29.75,South,187,6.0,7.0,76,0.00,,,0.00,weatherlink.com 1.10,2013-01-29 22:34:00,
2013-01-29 17:50:00,62.0,55.0,29.76,SSW,205,0.0,8.0,77,0.00,,,0.00,weatherlink.com 1.10,2013-01-29 22:50:00,
2013-01-29 18:05:00,61.2,54.0,29.75,South,185,2.0,6.0,78,0.00,,,0.00,weatherlink.com 1.10,2013-01-29 23:05:00,
2013-01-29 18:19:00,60.6,54.0,29.74,South,184,3.0,6.0,79,0.00,,,0.00,weatherlink.com 1.10,2013-01-29 23:19:00,
2013-01-29 18:34:00,60.7,54.0,29.74,SSW,197,0.0,6.0,79,0.00,,,0.00,weatherlink.com 1.10,2013-01-29 23:34:00,
2013-01-29 18:50:00,60.4,54.0,29.73,SSE,163,0.0,6.0,79,0.00,,,0.00,weatherlink.com 1.10,2013-01-29 23:50:00,
2013-01-29 19:06:00,60.6,54.0,29.74,SSW,205,0.0,9.0,79,0.00,,,0.00,weatherlink.com 1.10,2013-01-30 00:06:00,
2013-01-29 19:20:00,60.4,54.0,29.73,South,191,0.0,5.0,78,0.00,,,0.00,weatherlink.com 1.10,2013-01-30 00:20:00,
2013-01-29 19:35:00,60.0,53.0,29.73,SSW,193,3.0,5.0,78,0.00,,,0.00,weatherlink.com 1.10,2013-01-30 00:35:00,
2013-01-29 19:50:00,59.5,53.0,29.72,South,186,1.0,6.0,78,0.00,,,0.00,weatherlink.com 1.10,2013-01-30 00:50:00,
2013-01-29 20:05:00,58.6,52.0,29.73,South,183,0.0,5.0,79,0.00,,,0.00,weatherlink.com 1.10,2013-01-30 01:05:00,
2013-01-29 20:20:00,57.7,52.0,29.72,South,178,0.0,3.0,81,0.00,,,0.00,weatherlink.com 1.10,2013-01-30 01:20:00,
2013-01-29 20:35:00,57.3,52.0,29.71,SSE,158,0.0,4.0,82,0.00,,,0.00,weatherlink.com 1.10,2013-01-30 01:35:00,
2013-01-29 20:51:00,57.6,52.0,29.70,South,186,0.0,4.0,81,0.00,,,0.00,weatherlink.com 1.10,2013-01-30 01:51:00,
2013-01-29 21:05:00,58.5,52.0,29.70,SSE,168,3.0,5.0,79,0.00,,,0.00,weatherlink.com 1.10,2013-01-30 02:05:00,
2013-01-29 21:20:00,59.1,52.0,29.69,South,175,6.0,9.0,78,0.00,,,0.00,weatherlink.com 1.10,2013-01-30 02:20:00,
2013-01-29 21:35:00,59.5,53.0,29.68,SSE,155,2.0,8.0,78,0.00,,,0.00,weatherlink.com 1.10,2013-01-30 02:35:00,
2013-01-29 21:50:00,59.6,53.0,29.67,SSE,150,4.0,11.0,78,0.00,,,0.00,weatherlink.com 1.10,2013-01-30 02:50:00,
2013-01-29 22:05:00,59.7,53.0,29.66,SSE,164,6.0,8.0,78,0.00,,,0.00,weatherlink.com 1.10,2013-01-30 03:05:00,
2013-01-29 22:20:00,60.0,53.0,29.65,SSW,194,5.0,9.0,79,0.00,,,0.00,weatherlink.com 1.10,2013-01-30 03:20:00,
2013-01-29 22:35:00,60.8,55.0,29.65,SSW,201,5.0,16.0,80,0.00,,,0.00,weatherlink.com 1.10,2013-01-30 03:35:00,
2013-01-29 22:51:00,61.7,56.0,29.62,SSE,167,6.0,15.0,81,0.00,,,0.00,weatherlink.com 1.10,2013-01-30 03:51:00,
2013-01-29 23:06:00,62.4,56.0,29.62,South,188,6.0,14.0,80,0.00,,,0.00,weatherlink.com 1.10,2013-01-30 04:06:00,
2013-01-29 23:21:00,62.6,56.0,29.60,SSE,159,4.0,17.0,79,0.00,,,0.00,weatherlink.com 1.10,2013-01-30 04:21:00,
2013-01-29 23:37:00,62.8,57.0,29.60,SSE,153,8.0,13.0,80,0.00,,,0.00,weatherlink.com 1.10,2013-01-30 04:37:00,
2013-01-29 23:51:00,62.8,57.0,29.59,SSW,211,9.0,20.0,80,0.00,,,0.00,weatherlink.com 1.10,2013-01-30 04:51:00,